createdAt,value
2023-02-25T00:00:18.830Z,6.60
2023-02-25T00:02:52.525Z,5.80
2023-02-25T00:05:29.473Z,6.82
2023-02-25T00:08:03.718Z,7.15
2023-02-25T00:10:36.591Z,6.45
2023-02-25T00:13:18.106Z,7.03
2023-02-25T00:15:51.522Z,7.47
2023-02-25T00:18:24.507Z,6.22
2023-02-25T00:20:59.175Z,6.13
2023-02-25T00:23:32.052Z,6.10
2023-02-25T00:26:06.847Z,6.95
2023-02-25T00:28:41.463Z,5.60
2023-02-25T00:31:16.504Z,6.63
2023-02-25T00:33:49.813Z,6.28
2023-02-25T00:36:26.385Z,6.47
2023-02-25T00:38:59.452Z,6.28
2023-02-25T00:41:32.846Z,6.40
2023-02-25T00:44:07.210Z,5.35
2023-02-25T00:46:40.232Z,5.80
2023-02-25T00:49:31.498Z,4.88
2023-02-25T00:52:07.491Z,5.65
2023-02-25T00:54:40.631Z,5.97
2023-02-25T00:57:13.527Z,5.60
2023-02-25T00:59:46.393Z,6.18
2023-02-25T01:02:19.295Z,6.35
2023-02-25T01:04:52.290Z,6.55
2023-02-25T01:07:26.634Z,6.88
2023-02-25T01:10:00.360Z,5.97
2023-02-25T01:12:33.207Z,5.85
2023-02-25T01:15:06.855Z,5.90
2023-02-25T01:17:40.205Z,6.30
2023-02-25T01:20:13.470Z,6.13
2023-02-25T01:22:47.713Z,5.90
2023-02-25T01:25:20.698Z,5.55
2023-02-25T01:27:56.030Z,5.68
2023-02-25T01:30:29.489Z,4.78
2023-02-25T01:33:02.713Z,4.85
2023-02-25T01:35:37.290Z,4.55
2023-02-25T01:38:11.531Z,3.78
2023-02-25T01:40:44.672Z,3.92
2023-02-25T01:43:19.073Z,4.40
2023-02-25T01:45:54.287Z,3.45
2023-02-25T01:48:30.204Z,3.78
2023-02-25T01:51:07.164Z,3.67
2023-02-25T01:53:47.113Z,3.35
2023-02-25T01:56:23.936Z,3.13
2023-02-25T01:59:00.127Z,3.22
2023-02-25T02:01:36.117Z,3.30
2023-02-25T02:04:12.884Z,2.90
2023-02-25T02:06:47.404Z,3.00
2023-02-25T02:09:26.647Z,3.50
2023-02-25T02:12:01.013Z,3.20
2023-02-25T02:14:39.789Z,3.15
2023-02-25T02:17:22.591Z,3.05
2023-02-25T02:20:11.532Z,4.00
2023-02-25T02:22:59.781Z,2.65
2023-02-25T02:25:55.276Z,4.28
2023-02-25T02:28:52.122Z,3.25
2023-02-25T02:31:43.632Z,3.17
2023-02-25T02:34:30.180Z,3.20
2023-02-25T02:37:17.482Z,3.25
2023-02-25T02:39:55.239Z,3.25
2023-02-25T02:42:37.860Z,2.90
2023-02-25T02:45:17.869Z,2.60
2023-02-25T02:47:59.148Z,2.60
2023-02-25T02:50:37.251Z,2.70
2023-02-25T02:53:14.457Z,2.42
2023-02-25T02:55:52.996Z,2.63
2023-02-25T02:58:33.075Z,2.85
2023-02-25T03:01:10.212Z,2.40
2023-02-25T03:03:48.853Z,2.65
2023-02-25T03:06:27.152Z,2.05
2023-02-25T03:09:05.370Z,2.13
2023-02-25T03:11:40.781Z,2.22
2023-02-25T03:14:14.805Z,1.85
2023-02-25T03:16:52.436Z,1.80
2023-02-25T03:19:32.416Z,1.90
2023-02-25T03:22:09.269Z,1.50
2023-02-25T03:24:49.891Z,1.85
2023-02-25T03:27:26.903Z,1.98
2023-02-25T03:30:12.609Z,1.75
2023-02-25T03:32:52.959Z,3.03
2023-02-25T03:35:29.471Z,2.15
2023-02-25T03:38:08.723Z,2.60
2023-02-25T03:40:44.183Z,2.10
2023-02-25T03:43:21.995Z,2.20
2023-02-25T03:45:56.743Z,3.30
2023-02-25T03:48:32.183Z,1.98
2023-02-25T03:51:07.703Z,2.60
2023-02-25T03:53:42.626Z,2.03
2023-02-25T03:56:18.745Z,2.28
2023-02-25T03:58:52.457Z,2.17
2023-02-25T04:01:31.265Z,2.40
2023-02-25T04:04:04.786Z,1.90
2023-02-25T04:06:40.811Z,2.17
2023-02-25T04:09:14.272Z,2.20
2023-02-25T04:11:49.262Z,2.70
2023-02-25T04:14:22.128Z,2.30
2023-02-25T04:16:55.305Z,2.78
2023-02-25T04:19:28.740Z,2.40
2023-02-25T04:22:03.001Z,2.13
2023-02-25T04:24:35.889Z,2.90
2023-02-25T04:27:08.851Z,2.60
2023-02-25T04:29:41.730Z,2.47
2023-02-25T04:32:14.673Z,2.67
2023-02-25T04:34:47.667Z,2.75
2023-02-25T04:37:21.898Z,2.53
2023-02-25T04:39:54.862Z,2.03
2023-02-25T04:42:28.554Z,2.03
2023-02-25T04:45:01.420Z,2.10
2023-02-25T04:47:34.687Z,2.63
2023-02-25T04:50:10.896Z,2.47
2023-02-25T04:52:45.095Z,2.20
2023-02-25T04:55:18.650Z,2.45
2023-02-25T04:57:53.839Z,2.42
2023-02-25T05:00:28.014Z,3.00
2023-02-25T05:03:01.060Z,3.17
2023-02-25T05:05:33.876Z,2.70
2023-02-25T05:08:08.049Z,3.05
2023-02-25T05:10:40.914Z,2.25
2023-02-25T05:13:13.889Z,2.53
2023-02-25T05:15:46.953Z,2.55
2023-02-25T05:18:19.917Z,2.08
2023-02-25T05:20:54.121Z,2.33
2023-02-25T05:23:28.416Z,2.40
2023-02-25T05:26:01.626Z,2.08
2023-02-25T05:28:34.794Z,2.05
2023-02-25T05:31:11.906Z,2.38
2023-02-25T05:33:44.904Z,2.60
2023-02-25T05:36:18.104Z,1.88
2023-02-25T05:38:54.903Z,2.20
2023-02-25T05:41:27.823Z,2.75
2023-02-25T05:44:00.571Z,4.22
2023-02-25T05:46:33.521Z,2.42
2023-02-25T05:49:06.808Z,2.08
2023-02-25T05:51:40.001Z,2.53
2023-02-25T05:54:14.231Z,2.13
2023-02-25T05:56:47.175Z,2.22
2023-02-25T05:59:20.294Z,2.20
2023-02-25T06:01:53.152Z,2.13
2023-02-25T06:04:26.486Z,3.13
2023-02-25T06:06:59.344Z,2.53
2023-02-25T06:09:34.634Z,2.17
2023-02-25T06:12:08.146Z,3.10
2023-02-25T06:14:41.370Z,2.35
2023-02-25T06:17:15.386Z,2.08
2023-02-25T06:19:48.402Z,2.38
2023-02-25T06:22:22.668Z,2.55
2023-02-25T06:24:56.877Z,2.03
2023-02-25T06:27:31.699Z,2.13
2023-02-25T06:30:05.705Z,2.78
2023-02-25T06:32:38.919Z,2.25
2023-02-25T06:35:11.852Z,2.20
2023-02-25T06:37:44.790Z,3.00
2023-02-25T06:40:19.884Z,3.67
2023-02-25T06:42:53.053Z,2.53
2023-02-25T06:45:26.266Z,2.92
2023-02-25T06:47:59.793Z,2.30
2023-02-25T06:50:32.686Z,2.30
2023-02-25T06:53:05.699Z,2.88
2023-02-25T06:55:41.845Z,3.53
2023-02-25T06:58:15.683Z,3.30
2023-02-25T07:00:48.788Z,4.55
2023-02-25T07:03:21.672Z,3.50
2023-02-25T07:05:55.281Z,4.57
2023-02-25T07:08:31.046Z,4.68
2023-02-25T07:11:29.255Z,3.47
2023-02-25T07:14:06.269Z,3.35
2023-02-25T07:16:39.161Z,3.88
2023-02-25T07:19:11.942Z,4.75
2023-02-25T07:21:45.757Z,4.03
2023-02-25T07:24:18.629Z,3.83
2023-02-25T07:26:53.844Z,4.82
2023-02-25T07:29:26.759Z,5.28
2023-02-25T07:32:00.110Z,4.75
2023-02-25T07:34:33.070Z,4.07
2023-02-25T07:37:05.970Z,3.75
2023-02-25T07:39:38.849Z,3.42
2023-02-25T07:42:13.113Z,4.47
2023-02-25T07:44:53.961Z,3.28
2023-02-25T07:47:29.373Z,3.35
2023-02-25T07:50:03.173Z,3.25
2023-02-25T07:52:36.708Z,2.78
2023-02-25T07:55:10.433Z,4.15
2023-02-25T07:57:44.650Z,3.83
2023-02-25T08:00:18.199Z,4.70
2023-02-25T08:02:51.175Z,7.18
2023-02-25T08:05:24.219Z,5.43
2023-02-25T08:07:57.018Z,6.75
2023-02-25T08:10:30.214Z,4.28
2023-02-25T08:13:04.321Z,3.92
2023-02-25T08:15:41.703Z,3.08
2023-02-25T08:18:14.724Z,4.45
2023-02-25T08:20:48.351Z,3.47
2023-02-25T08:23:21.400Z,3.22
2023-02-25T08:25:55.601Z,4.45
2023-02-25T08:28:34.343Z,3.70
2023-02-25T08:31:12.238Z,3.60
2023-02-25T08:33:49.330Z,4.32
2023-02-25T08:36:24.609Z,5.05
2023-02-25T08:38:58.773Z,4.78
2023-02-25T08:41:32.537Z,3.40
2023-02-25T08:44:06.721Z,4.50
2023-02-25T08:46:41.188Z,3.83
2023-02-25T08:49:14.783Z,3.95
2023-02-25T08:51:47.616Z,4.88
2023-02-25T08:54:20.381Z,4.05
2023-02-25T08:56:55.551Z,4.10
2023-02-25T08:59:36.101Z,2.45
2023-02-25T09:02:15.106Z,3.00
2023-02-25T09:04:48.170Z,2.33
2023-02-25T09:07:22.133Z,2.45
2023-02-25T09:09:57.132Z,2.67
2023-02-25T09:12:31.618Z,2.85
2023-02-25T09:15:07.732Z,3.28
2023-02-25T09:17:41.502Z,2.83
2023-02-25T09:20:18.038Z,3.60
2023-02-25T09:22:50.956Z,3.83
2023-02-25T09:25:24.187Z,4.53
2023-02-25T09:27:57.040Z,3.33
2023-02-25T09:30:31.194Z,3.58
2023-02-25T09:33:04.171Z,2.75
2023-02-25T09:35:37.095Z,3.25
2023-02-25T09:38:09.951Z,3.08
2023-02-25T09:40:47.112Z,3.75
2023-02-25T09:43:26.222Z,3.75
2023-02-25T09:46:09.477Z,3.13
2023-02-25T09:48:51.715Z,3.17
2023-02-25T09:51:30.522Z,2.85
2023-02-25T09:54:16.841Z,3.38
2023-02-25T09:56:51.158Z,2.88
2023-02-25T09:59:24.637Z,3.33
2023-02-25T10:02:03.811Z,2.85
2023-02-25T10:04:43.943Z,3.45
2023-02-25T10:07:23.523Z,3.08
2023-02-25T10:10:03.493Z,3.90
2023-02-25T10:12:43.342Z,2.90
2023-02-25T10:15:33.561Z,4.05
2023-02-25T10:18:23.680Z,4.07
2023-02-25T10:21:07.770Z,3.10
2023-02-25T10:23:55.301Z,3.10
2023-02-25T10:26:32.631Z,2.63
2023-02-25T10:29:08.951Z,3.63
2023-02-25T10:31:45.765Z,3.85
2023-02-25T10:34:26.018Z,2.97
2023-02-25T10:37:01.017Z,3.50
2023-02-25T10:39:34.996Z,3.80
2023-02-25T10:42:08.001Z,3.47
2023-02-25T10:45:39.973Z,2.75
2023-02-25T10:48:20.082Z,3.95
2023-02-25T10:54:54.076Z,3.92
2023-02-25T10:57:58.557Z,5.05
2023-02-25T11:04:33.297Z,3.15
2023-02-25T11:08:06.821Z,2.97
2023-02-25T11:10:39.762Z,3.30
2023-02-25T11:13:29.205Z,2.80
2023-02-25T11:16:06.920Z,2.35
2023-02-25T11:18:41.157Z,3.17
2023-02-25T11:21:15.479Z,2.80
2023-02-25T11:23:51.155Z,3.60
2023-02-25T11:26:30.366Z,2.38
2023-02-25T11:29:11.357Z,2.72
2023-02-25T11:31:45.058Z,2.95
2023-02-25T11:34:23.132Z,3.22
2023-02-25T11:36:56.303Z,3.50
2023-02-25T11:39:30.843Z,3.53
2023-02-25T11:42:24.478Z,2.60
2023-02-25T11:45:03.971Z,3.17
2023-02-25T11:51:52.215Z,3.25
2023-02-25T11:54:36.627Z,3.30
2023-02-25T11:57:28.395Z,2.50
2023-02-25T12:00:18.676Z,2.95
2023-02-25T12:03:06.535Z,2.92
2023-02-25T12:05:52.016Z,3.00
2023-02-25T12:08:37.337Z,1.65
2023-02-25T12:11:41.421Z,1.65
2023-02-25T12:14:56.026Z,1.50
2023-02-25T12:18:15.939Z,1.90
2023-02-25T12:21:20.229Z,1.83
2023-02-25T12:24:47.208Z,2.08
2023-02-25T12:27:48.205Z,1.80
2023-02-25T12:30:38.806Z,1.75
2023-02-25T12:33:33.124Z,1.88
2023-02-25T12:36:20.607Z,1.95
2023-02-25T12:39:20.877Z,1.50
2023-02-25T12:42:09.153Z,1.55
2023-02-25T12:45:10.370Z,2.58
2023-02-25T12:48:06.453Z,1.85
2023-02-25T12:51:06.775Z,2.10
2023-02-25T12:53:54.650Z,2.28
2023-02-25T12:56:53.265Z,2.08
2023-02-25T12:59:46.027Z,2.38
2023-02-25T13:02:53.991Z,2.53
2023-02-25T13:05:51.841Z,3.47
2023-02-25T13:08:53.205Z,3.35
2023-02-25T13:11:54.668Z,3.22
2023-02-25T13:14:46.634Z,3.20
2023-02-25T13:17:36.754Z,2.00
2023-02-25T13:20:37.777Z,2.83
2023-02-25T13:23:26.723Z,2.30
2023-02-25T13:26:31.497Z,2.38
2023-02-25T13:29:21.210Z,1.42
2023-02-25T13:32:14.085Z,2.33
2023-02-25T13:34:55.791Z,1.77
2023-02-25T13:37:45.338Z,1.48
2023-02-25T13:40:27.103Z,1.23
2023-02-25T13:43:18.074Z,1.23
2023-02-25T13:46:02.372Z,1.05
2023-02-25T13:49:17.444Z,1.30
2023-02-25T13:52:07.606Z,2.13
2023-02-25T13:55:09.705Z,1.52
2023-02-25T13:57:55.806Z,4.30
2023-02-25T14:01:05.810Z,1.95
2023-02-25T14:04:13.326Z,2.10
2023-02-25T14:07:12.081Z,0.85
2023-02-25T14:09:49.874Z,0.95
2023-02-25T14:12:34.337Z,1.50
2023-02-25T14:15:21.620Z,2.10
2023-02-25T14:18:06.149Z,1.00
2023-02-25T14:20:46.621Z,1.40
2023-02-25T14:26:20.192Z,2.10
2023-02-25T14:29:06.660Z,1.90
2023-02-25T14:31:53.591Z,1.50
2023-02-25T14:34:42.680Z,2.85
2023-02-25T14:37:23.870Z,3.00
2023-02-25T14:40:11.958Z,2.13
2023-02-25T14:43:06.388Z,2.05
2023-02-25T14:45:44.568Z,2.03
2023-02-25T14:48:22.186Z,2.13
2023-02-25T14:51:11.815Z,1.98
2023-02-25T14:54:10.846Z,2.83
2023-02-25T14:56:52.784Z,2.35
2023-02-25T15:00:05.374Z,1.65
2023-02-25T15:02:59.211Z,1.00
2023-02-25T15:05:46.408Z,1.67
2023-02-25T15:08:35.694Z,2.75
2023-02-25T15:11:29.553Z,1.70
2023-02-25T15:14:39.711Z,2.60
2023-02-25T15:17:44.170Z,1.52
2023-02-25T15:20:42.815Z,3.65
2023-02-25T15:23:17.784Z,6.43
2023-02-25T15:26:13.564Z,4.60
2023-02-25T15:28:48.295Z,3.80
2023-02-25T15:31:30.969Z,2.08
2023-02-25T15:34:40.820Z,2.95
2023-02-25T15:37:24.386Z,3.03
2023-02-25T15:39:59.081Z,5.40
2023-02-25T15:42:54.177Z,3.35
2023-02-25T15:45:41.451Z,2.95
2023-02-25T15:48:35.597Z,3.03
2023-02-25T15:51:12.191Z,2.33
2023-02-25T15:53:48.319Z,3.80
2023-02-25T15:56:49.414Z,2.55
2023-02-25T15:59:45.610Z,2.03
2023-02-25T16:02:53.754Z,1.58
2023-02-25T16:05:30.954Z,1.83
2023-02-25T16:08:15.386Z,1.67
2023-02-25T16:10:53.881Z,2.63
2023-02-25T16:13:30.554Z,1.88
2023-02-25T16:16:06.742Z,1.90
2023-02-25T16:18:45.284Z,1.92
2023-02-25T16:21:24.527Z,2.78
2023-02-25T16:24:00.503Z,2.00
2023-02-25T16:26:45.484Z,1.60
2023-02-25T16:29:32.708Z,2.40
2023-02-25T16:32:13.522Z,2.70
2023-02-25T16:34:53.235Z,3.65
2023-02-25T16:37:32.436Z,4.68
2023-02-25T16:40:06.747Z,3.75
2023-02-25T16:42:39.784Z,2.78
2023-02-25T16:45:25.313Z,3.35
2023-02-25T16:48:03.181Z,3.67
2023-02-25T16:50:37.499Z,2.60
2023-02-25T16:53:18.246Z,3.25
2023-02-25T16:55:51.900Z,1.85
2023-02-25T16:58:27.647Z,1.73
2023-02-25T17:01:03.927Z,5.80
2023-02-25T17:03:46.670Z,3.53
2023-02-25T17:06:20.352Z,2.13
2023-02-25T17:08:53.146Z,1.92
2023-02-25T17:11:26.681Z,2.40
2023-02-25T17:14:05.336Z,2.10
2023-02-25T17:16:43.607Z,2.60
2023-02-25T17:19:22.738Z,2.40
2023-02-25T17:21:57.871Z,1.98
2023-02-25T17:24:33.479Z,1.20
2023-02-25T17:27:12.569Z,1.77
2023-02-25T17:29:45.421Z,2.05
2023-02-25T17:32:25.037Z,2.35
2023-02-25T17:35:03.616Z,1.80
2023-02-25T17:37:36.610Z,3.38
2023-02-25T17:40:10.794Z,2.65
2023-02-25T17:42:43.952Z,3.38
2023-02-25T17:45:42.246Z,1.65
2023-02-25T17:48:18.269Z,2.28
2023-02-25T17:50:59.164Z,1.80
2023-02-25T17:53:39.979Z,1.70
2023-02-25T17:56:22.602Z,3.17
2023-02-25T17:59:01.206Z,1.20
2023-02-25T18:01:47.582Z,1.88
2023-02-25T18:04:26.587Z,1.73
2023-02-25T18:07:21.011Z,1.38
2023-02-25T18:09:54.284Z,1.50
2023-02-25T18:12:29.970Z,1.40
2023-02-25T18:15:06.175Z,1.40
2023-02-25T18:17:41.182Z,1.38
2023-02-25T18:20:31.768Z,1.88
2023-02-25T18:23:08.650Z,2.80
2023-02-25T18:25:42.851Z,2.40
2023-02-25T18:28:19.236Z,1.80
2023-02-25T18:30:52.544Z,1.48
2023-02-25T18:33:25.418Z,0.93
2023-02-25T18:35:59.757Z,1.00
2023-02-25T18:38:37.706Z,1.27
2023-02-25T18:41:12.011Z,1.60
2023-02-25T18:43:46.944Z,1.30
2023-02-25T18:46:19.985Z,1.50
2023-02-25T18:48:52.864Z,1.85
2023-02-25T18:51:25.762Z,2.85
2023-02-25T18:54:00.044Z,1.27
2023-02-25T18:56:33.279Z,1.23
2023-02-25T18:59:06.244Z,0.95
2023-02-25T19:01:39.355Z,1.00
2023-02-25T19:04:17.490Z,1.40
2023-02-25T19:06:50.849Z,0.90
2023-02-25T19:09:25.322Z,0.98
2023-02-25T19:11:58.162Z,0.98
2023-02-25T19:14:30.940Z,2.17
2023-02-25T19:17:03.808Z,1.60
2023-02-25T19:19:36.618Z,1.02
2023-02-25T19:22:11.734Z,0.98
2023-02-25T19:24:47.857Z,1.33
2023-02-25T19:27:23.841Z,1.13
2023-02-25T19:29:59.167Z,1.48
2023-02-25T19:32:32.028Z,1.08
2023-02-25T19:35:06.409Z,1.00
2023-02-25T19:37:41.304Z,1.67
2023-02-25T19:40:17.520Z,1.33
2023-02-25T19:42:50.276Z,1.48
2023-02-25T19:45:25.034Z,1.27
2023-02-25T19:47:58.089Z,1.40
2023-02-25T19:50:34.596Z,1.85
2023-02-25T19:53:07.557Z,1.40
2023-02-25T19:55:43.744Z,1.60
2023-02-25T19:58:16.734Z,1.35
2023-02-25T20:00:49.980Z,1.52
2023-02-25T20:03:23.136Z,1.80
2023-02-25T20:05:55.926Z,1.88
2023-02-25T20:08:28.849Z,1.73
2023-02-25T20:11:03.108Z,2.05
2023-02-25T20:13:38.359Z,1.60
2023-02-25T20:16:11.225Z,2.13
2023-02-25T20:18:44.068Z,1.40
2023-02-25T20:21:17.792Z,2.47
2023-02-25T20:23:50.839Z,2.13
2023-02-25T20:26:25.856Z,3.42
2023-02-25T20:28:59.111Z,1.90
2023-02-25T20:31:32.171Z,2.13
2023-02-25T20:34:05.911Z,1.98
2023-02-25T20:36:47.399Z,2.28
2023-02-25T20:39:39.737Z,1.50
2023-02-25T20:42:17.725Z,1.90
2023-02-25T20:44:51.883Z,1.52
2023-02-25T20:47:27.572Z,2.08
2023-02-25T20:50:00.673Z,1.88
2023-02-25T20:52:34.185Z,1.80
2023-02-25T20:55:08.410Z,2.20
2023-02-25T20:57:42.511Z,2.20
2023-02-25T21:00:16.724Z,2.10
2023-02-25T21:02:49.555Z,2.25
2023-02-25T21:05:22.468Z,1.60
2023-02-25T21:07:55.304Z,1.67
2023-02-25T21:10:28.312Z,1.92
2023-02-25T21:13:02.440Z,1.95
2023-02-25T21:15:36.549Z,1.75
2023-02-25T21:18:09.382Z,1.38
2023-02-25T21:20:42.289Z,1.25
2023-02-25T21:23:15.008Z,1.42
2023-02-25T21:25:47.809Z,1.60
2023-02-25T21:28:21.976Z,1.80
2023-02-25T21:31:01.682Z,2.25
2023-02-25T21:33:35.030Z,1.42
2023-02-25T21:36:09.812Z,2.03
2023-02-25T21:38:42.646Z,1.70
2023-02-25T21:41:16.594Z,1.67
2023-02-25T21:43:53.735Z,1.80
2023-02-25T21:46:26.923Z,1.75
2023-02-25T21:49:00.221Z,3.42
2023-02-25T21:51:33.252Z,2.63
2023-02-25T21:54:06.234Z,2.25
2023-02-25T21:56:39.091Z,1.88
2023-02-25T21:59:13.294Z,1.77
2023-02-25T22:01:46.645Z,1.85
2023-02-25T22:04:19.524Z,1.90
2023-02-25T22:06:52.528Z,1.52
2023-02-25T22:09:25.402Z,2.20
2023-02-25T22:11:58.295Z,2.05
2023-02-25T22:14:32.497Z,3.10
2023-02-25T22:17:05.269Z,4.63
2023-02-25T22:19:38.124Z,2.95
2023-02-25T22:22:10.952Z,2.35
2023-02-25T22:24:44.996Z,2.47
2023-02-25T22:27:17.921Z,2.30
2023-02-25T22:29:52.233Z,2.22
2023-02-25T22:32:25.162Z,2.13
2023-02-25T22:34:58.480Z,2.00
2023-02-25T22:37:32.753Z,1.92
2023-02-25T22:40:06.674Z,1.98
2023-02-25T22:42:39.641Z,1.80
2023-02-25T22:45:15.970Z,2.50
2023-02-25T22:47:49.251Z,2.10
2023-02-25T22:50:22.352Z,2.63
2023-02-25T22:52:55.375Z,1.92
2023-02-25T22:55:28.314Z,2.38
2023-02-25T22:58:04.266Z,2.30
2023-02-25T23:00:41.339Z,1.48
2023-02-25T23:03:14.248Z,1.67
2023-02-25T23:05:47.202Z,2.63
2023-02-25T23:08:20.271Z,1.88
2023-02-25T23:10:53.861Z,1.83
2023-02-25T23:13:26.729Z,1.73
2023-02-25T23:16:03.802Z,1.58
2023-02-25T23:18:36.679Z,1.50
2023-02-25T23:21:14.368Z,1.58
2023-02-25T23:23:48.548Z,1.52
2023-02-25T23:26:23.595Z,1.65
2023-02-25T23:28:57.953Z,1.45
2023-02-25T23:31:35.085Z,1.73
2023-02-25T23:34:10.334Z,1.58
2023-02-25T23:36:44.925Z,2.05
2023-02-25T23:39:18.352Z,1.67
2023-02-25T23:41:51.254Z,1.58
2023-02-25T23:44:24.521Z,1.17
2023-02-25T23:46:58.982Z,1.40
2023-02-25T23:49:32.165Z,1.40
2023-02-25T23:52:05.331Z,2.40
2023-02-25T23:54:38.370Z,1.70
2023-02-25T23:57:11.223Z,1.80
2023-02-25T23:59:44.308Z,1.13
